DLY weather

Dillon's Bay Airport
Dillon's Bay, Tafea, Vanuatu

Public forecast

Using degrees Celsius for public forecast. Weather courtesy of forecast.io.

Closest aviation weather report (METAR) to Dillon's Bay Airport

Closest report is Tanna Airport, 43.1 nm (79.8 km) SSE. Retrieved 2019/12/11 02:00 UTC (37 minutes ago):

NVVW 110200Z AUTO 18012KT //// // NCD 27/19 Q1010

Closest aviation forecast (TAF) to Dillon's Bay Airport

Closest forecast is Tanna Airport, 43.1 nm (79.8 km) SSE. Retrieved 2019-12-11 00:22 UTC (2 hours ago):

TAF NVVW 102220Z 1100/1124 18008KT 9999 SCT025